sensor_id;sensor_type;location;lat;lon;timestamp;temperature;humidity
3075;DHT22;1548;51.716;8.748;2022-09-12T00:01:41;13.60;80.00
3075;DHT22;1548;51.716;8.748;2022-09-12T00:04:08;13.60;79.90
3075;DHT22;1548;51.716;8.748;2022-09-12T00:06:36;13.60;80.00
3075;DHT22;1548;51.716;8.748;2022-09-12T00:09:04;13.60;80.00
3075;DHT22;1548;51.716;8.748;2022-09-12T00:11:30;13.60;79.90
3075;DHT22;1548;51.716;8.748;2022-09-12T00:14:00;13.60;80.00
3075;DHT22;1548;51.716;8.748;2022-09-12T00:16:29;13.70;80.00
3075;DHT22;1548;51.716;8.748;2022-09-12T00:18:56;13.60;80.00
3075;DHT22;1548;51.716;8.748;2022-09-12T00:21:22;13.60;80.00
3075;DHT22;1548;51.716;8.748;2022-09-12T00:23:48;13.40;79.90
3075;DHT22;1548;51.716;8.748;2022-09-12T00:26:14;13.40;80.10
3075;DHT22;1548;51.716;8.748;2022-09-12T00:28:41;13.30;79.90
3075;DHT22;1548;51.716;8.748;2022-09-12T00:31:16;13.40;80.10
3075;DHT22;1548;51.716;8.748;2022-09-12T00:33:42;13.30;80.00
3075;DHT22;1548;51.716;8.748;2022-09-12T00:36:14;13.20;80.10
3075;DHT22;1548;51.716;8.748;2022-09-12T00:38:40;13.10;80.10
3075;DHT22;1548;51.716;8.748;2022-09-12T00:41:09;13.10;80.00
3075;DHT22;1548;51.716;8.748;2022-09-12T00:43:43;13.10;80.20
3075;DHT22;1548;51.716;8.748;2022-09-12T00:46:26;13.20;80.20
3075;DHT22;1548;51.716;8.748;2022-09-12T00:51:53;13.10;80.20
3075;DHT22;1548;51.716;8.748;2022-09-12T00:54:23;13.10;80.30
3075;DHT22;1548;51.716;8.748;2022-09-12T00:56:53;13.10;80.10
3075;DHT22;1548;51.716;8.748;2022-09-12T00:59:40;13.00;80.00
3075;DHT22;1548;51.716;8.748;2022-09-12T01:02:07;13.10;80.50
3075;DHT22;1548;51.716;8.748;2022-09-12T01:04:36;13.10;80.30
3075;DHT22;1548;51.716;8.748;2022-09-12T01:07:04;13.20;80.20
3075;DHT22;1548;51.716;8.748;2022-09-12T01:09:31;13.20;80.10
3075;DHT22;1548;51.716;8.748;2022-09-12T01:11:57;13.20;80.10
3075;DHT22;1548;51.716;8.748;2022-09-12T01:14:23;13.20;80.20
3075;DHT22;1548;51.716;8.748;2022-09-12T01:16:49;13.10;80.20
3075;DHT22;1548;51.716;8.748;2022-09-12T01:27:39;13.10;80.20
3075;DHT22;1548;51.716;8.748;2022-09-12T01:46:44;13.00;80.30
3075;DHT22;1548;51.716;8.748;2022-09-12T01:49:21;12.90;80.20
3075;DHT22;1548;51.716;8.748;2022-09-12T01:51:52;12.90;80.30
3075;DHT22;1548;51.716;8.748;2022-09-12T01:54:26;12.90;80.30
3075;DHT22;1548;51.716;8.748;2022-09-12T01:56:56;12.90;80.20
3075;DHT22;1548;51.716;8.748;2022-09-12T01:59:38;13.00;80.30
3075;DHT22;1548;51.716;8.748;2022-09-12T02:02:19;12.90;80.20
3075;DHT22;1548;51.716;8.748;2022-09-12T02:05:29;12.80;80.20
3075;DHT22;1548;51.716;8.748;2022-09-12T02:07:44;12.70;80.40
3075;DHT22;1548;51.716;8.748;2022-09-12T02:10:18;12.70;80.40
3075;DHT22;1548;51.716;8.748;2022-09-12T02:13:07;12.70;80.40
3075;DHT22;1548;51.716;8.748;2022-09-12T02:15:42;12.60;80.40
3075;DHT22;1548;51.716;8.748;2022-09-12T02:18:12;12.60;80.40
3075;DHT22;1548;51.716;8.748;2022-09-12T02:20:41;12.50;80.40
3075;DHT22;1548;51.716;8.748;2022-09-12T02:23:12;12.50;80.40
3075;DHT22;1548;51.716;8.748;2022-09-12T02:25:42;12.50;80.30
3075;DHT22;1548;51.716;8.748;2022-09-12T02:28:15;12.50;80.40
3075;DHT22;1548;51.716;8.748;2022-09-12T02:31:13;12.50;80.40
3075;DHT22;1548;51.716;8.748;2022-09-12T02:36:51;12.40;80.40
3075;DHT22;1548;51.716;8.748;2022-09-12T02:39:19;12.40;80.40
3075;DHT22;1548;51.716;8.748;2022-09-12T02:41:56;12.40;80.50
3075;DHT22;1548;51.716;8.748;2022-09-12T02:44:23;12.40;80.50
3075;DHT22;1548;51.716;8.748;2022-09-12T02:46:53;12.40;80.50
3075;DHT22;1548;51.716;8.748;2022-09-12T02:49:20;12.40;80.50
3075;DHT22;1548;51.716;8.748;2022-09-12T02:51:46;12.40;80.50
3075;DHT22;1548;51.716;8.748;2022-09-12T02:54:14;12.40;80.50
3075;DHT22;1548;51.716;8.748;2022-09-12T02:56:42;12.50;80.50
3075;DHT22;1548;51.716;8.748;2022-09-12T02:59:10;12.50;80.40
3075;DHT22;1548;51.716;8.748;2022-09-12T03:13:25;12.40;80.50
3075;DHT22;1548;51.716;8.748;2022-09-12T03:27:21;12.20;80.60
3075;DHT22;1548;51.716;8.748;2022-09-12T03:29:50;12.30;80.60
3075;DHT22;1548;51.716;8.748;2022-09-12T03:32:17;12.20;80.50
3075;DHT22;1548;51.716;8.748;2022-09-12T03:34:42;12.30;80.60
3075;DHT22;1548;51.716;8.748;2022-09-12T03:37:08;12.30;80.50
3075;DHT22;1548;51.716;8.748;2022-09-12T03:39:33;12.30;80.60
3075;DHT22;1548;51.716;8.748;2022-09-12T03:41:59;12.20;80.60
3075;DHT22;1548;51.716;8.748;2022-09-12T03:44:25;12.20;80.50
3075;DHT22;1548;51.716;8.748;2022-09-12T03:46:50;12.20;80.60
3075;DHT22;1548;51.716;8.748;2022-09-12T03:49:16;12.20;80.50
3075;DHT22;1548;51.716;8.748;2022-09-12T03:51:42;12.20;80.60
3075;DHT22;1548;51.716;8.748;2022-09-12T03:54:08;12.20;80.60
3075;DHT22;1548;51.716;8.748;2022-09-12T03:56:35;12.20;80.60
3075;DHT22;1548;51.716;8.748;2022-09-12T03:59:04;12.20;80.60
3075;DHT22;1548;51.716;8.748;2022-09-12T04:01:31;12.20;80.60
3075;DHT22;1548;51.716;8.748;2022-09-12T04:03:57;12.10;80.60
3075;DHT22;1548;51.716;8.748;2022-09-12T04:06:22;12.10;80.50
3075;DHT22;1548;51.716;8.748;2022-09-12T04:08:50;12.20;80.70
3075;DHT22;1548;51.716;8.748;2022-09-12T04:11:17;12.20;80.60
3075;DHT22;1548;51.716;8.748;2022-09-12T04:13:44;12.10;80.60
3075;DHT22;1548;51.716;8.748;2022-09-12T04:16:11;12.20;80.70
3075;DHT22;1548;51.716;8.748;2022-09-12T04:18:37;12.20;80.60
3075;DHT22;1548;51.716;8.748;2022-09-12T04:21:09;12.20;80.50
3075;DHT22;1548;51.716;8.748;2022-09-12T04:23:37;12.20;80.60
3075;DHT22;1548;51.716;8.748;2022-09-12T04:26:03;12.20;80.70
3075;DHT22;1548;51.716;8.748;2022-09-12T04:28:32;12.30;80.80
3075;DHT22;1548;51.716;8.748;2022-09-12T04:31:05;12.30;80.70
3075;DHT22;1548;51.716;8.748;2022-09-12T04:33:32;12.20;80.80
3075;DHT22;1548;51.716;8.748;2022-09-12T04:36:06;12.10;80.70
3075;DHT22;1548;51.716;8.748;2022-09-12T04:38:33;12.10;80.60
3075;DHT22;1548;51.716;8.748;2022-09-12T04:40:59;12.00;80.80
3075;DHT22;1548;51.716;8.748;2022-09-12T04:43:25;11.90;80.80
3075;DHT22;1548;51.716;8.748;2022-09-12T04:45:50;11.90;80.80
3075;DHT22;1548;51.716;8.748;2022-09-12T04:48:16;11.90;80.60
3075;DHT22;1548;51.716;8.748;2022-09-12T04:50:41;12.00;80.90
3075;DHT22;1548;51.716;8.748;2022-09-12T04:53:07;12.10;80.60
3075;DHT22;1548;51.716;8.748;2022-09-12T04:55:34;12.00;80.70
3075;DHT22;1548;51.716;8.748;2022-09-12T04:58:00;12.20;80.70
3075;DHT22;1548;51.716;8.748;2022-09-12T05:00:26;12.20;80.80
3075;DHT22;1548;51.716;8.748;2022-09-12T05:02:52;12.20;80.60
3075;DHT22;1548;51.716;8.748;2022-09-12T05:05:18;12.20;80.80
3075;DHT22;1548;51.716;8.748;2022-09-12T05:07:43;12.20;80.60
3075;DHT22;1548;51.716;8.748;2022-09-12T05:10:09;12.10;80.80
3075;DHT22;1548;51.716;8.748;2022-09-12T05:12:35;12.20;80.60
3075;DHT22;1548;51.716;8.748;2022-09-12T05:15:01;12.30;80.60
3075;DHT22;1548;51.716;8.748;2022-09-12T05:17:28;12.30;80.80
3075;DHT22;1548;51.716;8.748;2022-09-12T05:19:54;12.50;80.90
3075;DHT22;1548;51.716;8.748;2022-09-12T05:22:20;12.40;80.70
3075;DHT22;1548;51.716;8.748;2022-09-12T05:24:45;12.50;80.70
3075;DHT22;1548;51.716;8.748;2022-09-12T05:27:13;12.60;80.50
3075;DHT22;1548;51.716;8.748;2022-09-12T05:29:38;12.70;80.60
3075;DHT22;1548;51.716;8.748;2022-09-12T05:32:04;12.80;80.70
3075;DHT22;1548;51.716;8.748;2022-09-12T05:34:29;12.80;80.60
3075;DHT22;1548;51.716;8.748;2022-09-12T05:36:55;12.90;80.50
3075;DHT22;1548;51.716;8.748;2022-09-12T05:39:21;13.00;80.50
3075;DHT22;1548;51.716;8.748;2022-09-12T05:41:46;13.10;80.60
3075;DHT22;1548;51.716;8.748;2022-09-12T05:44:13;13.20;80.60
3075;DHT22;1548;51.716;8.748;2022-09-12T05:46:41;13.30;80.60
3075;DHT22;1548;51.716;8.748;2022-09-12T05:49:09;13.50;80.50
3075;DHT22;1548;51.716;8.748;2022-09-12T05:51:38;13.70;80.60
3075;DHT22;1548;51.716;8.748;2022-09-12T05:54:07;13.70;80.60
3075;DHT22;1548;51.716;8.748;2022-09-12T05:56:37;13.80;80.70
3075;DHT22;1548;51.716;8.748;2022-09-12T05:59:06;13.90;80.40
3075;DHT22;1548;51.716;8.748;2022-09-12T06:01:33;14.10;80.50
3075;DHT22;1548;51.716;8.748;2022-09-12T06:04:00;14.20;80.50
3075;DHT22;1548;51.716;8.748;2022-09-12T06:06:27;14.30;80.50
3075;DHT22;1548;51.716;8.748;2022-09-12T06:08:58;14.40;80.30
3075;DHT22;1548;51.716;8.748;2022-09-12T06:11:26;14.50;80.40
3075;DHT22;1548;51.716;8.748;2022-09-12T06:13:52;14.70;80.20
3075;DHT22;1548;51.716;8.748;2022-09-12T06:16:21;14.70;80.20
3075;DHT22;1548;51.716;8.748;2022-09-12T06:18:51;14.80;80.00
3075;DHT22;1548;51.716;8.748;2022-09-12T06:21:19;14.90;80.00
3075;DHT22;1548;51.716;8.748;2022-09-12T06:23:45;15.00;79.80
3075;DHT22;1548;51.716;8.748;2022-09-12T06:26:12;15.10;80.00
3075;DHT22;1548;51.716;8.748;2022-09-12T06:28:39;15.20;80.00
3075;DHT22;1548;51.716;8.748;2022-09-12T06:31:08;15.30;79.70
3075;DHT22;1548;51.716;8.748;2022-09-12T06:33:37;15.40;79.70
3075;DHT22;1548;51.716;8.748;2022-09-12T06:38:34;15.50;79.50
3075;DHT22;1548;51.716;8.748;2022-09-12T06:41:02;15.60;79.40
3075;DHT22;1548;51.716;8.748;2022-09-12T06:43:29;15.70;79.40
3075;DHT22;1548;51.716;8.748;2022-09-12T06:45:55;15.70;79.20
3075;DHT22;1548;51.716;8.748;2022-09-12T06:48:21;15.80;79.10
3075;DHT22;1548;51.716;8.748;2022-09-12T06:50:58;15.80;79.20
3075;DHT22;1548;51.716;8.748;2022-09-12T06:53:25;15.90;79.10
3075;DHT22;1548;51.716;8.748;2022-09-12T06:56:02;16.00;79.10
3075;DHT22;1548;51.716;8.748;2022-09-12T06:58:28;16.10;79.00
3075;DHT22;1548;51.716;8.748;2022-09-12T07:03:31;16.30;78.80
3075;DHT22;1548;51.716;8.748;2022-09-12T07:06:02;16.40;78.60
3075;DHT22;1548;51.716;8.748;2022-09-12T07:08:28;16.50;78.50
3075;DHT22;1548;51.716;8.748;2022-09-12T07:10:55;16.60;78.40
3075;DHT22;1548;51.716;8.748;2022-09-12T07:13:22;16.70;78.30
3075;DHT22;1548;51.716;8.748;2022-09-12T07:15:47;16.80;78.30
3075;DHT22;1548;51.716;8.748;2022-09-12T07:18:13;16.90;78.00
3075;DHT22;1548;51.716;8.748;2022-09-12T07:20:39;17.00;78.00
3075;DHT22;1548;51.716;8.748;2022-09-12T07:23:05;17.10;77.80
3075;DHT22;1548;51.716;8.748;2022-09-12T07:25:30;17.20;77.70
3075;DHT22;1548;51.716;8.748;2022-09-12T07:27:56;17.40;77.60
3075;DHT22;1548;51.716;8.748;2022-09-12T07:30:21;17.50;77.30
3075;DHT22;1548;51.716;8.748;2022-09-12T07:32:51;17.60;77.30
3075;DHT22;1548;51.716;8.748;2022-09-12T07:35:19;17.70;76.90
3075;DHT22;1548;51.716;8.748;2022-09-12T07:37:45;17.80;76.80
3075;DHT22;1548;51.716;8.748;2022-09-12T07:40:11;18.00;76.80
3075;DHT22;1548;51.716;8.748;2022-09-12T07:42:37;18.10;76.20
3075;DHT22;1548;51.716;8.748;2022-09-12T07:45:03;18.20;75.90
3075;DHT22;1548;51.716;8.748;2022-09-12T07:47:28;18.30;75.90
3075;DHT22;1548;51.716;8.748;2022-09-12T07:49:54;18.40;75.70
3075;DHT22;1548;51.716;8.748;2022-09-12T07:52:19;18.50;75.60
3075;DHT22;1548;51.716;8.748;2022-09-12T07:54:45;18.60;75.40
3075;DHT22;1548;51.716;8.748;2022-09-12T07:57:10;18.70;75.30
3075;DHT22;1548;51.716;8.748;2022-09-12T07:59:36;18.80;75.00
3075;DHT22;1548;51.716;8.748;2022-09-12T08:02:12;19.00;74.90
3075;DHT22;1548;51.716;8.748;2022-09-12T08:04:41;19.20;74.50
3075;DHT22;1548;51.716;8.748;2022-09-12T08:07:07;19.20;74.30
3075;DHT22;1548;51.716;8.748;2022-09-12T08:09:34;19.40;74.20
3075;DHT22;1548;51.716;8.748;2022-09-12T08:11:59;19.50;73.60
3075;DHT22;1548;51.716;8.748;2022-09-12T08:14:25;19.60;73.10
3075;DHT22;1548;51.716;8.748;2022-09-12T08:16:52;19.80;73.20
3075;DHT22;1548;51.716;8.748;2022-09-12T08:19:17;19.70;73.00
3075;DHT22;1548;51.716;8.748;2022-09-12T08:21:43;19.90;72.80
3075;DHT22;1548;51.716;8.748;2022-09-12T08:24:10;20.00;72.20
3075;DHT22;1548;51.716;8.748;2022-09-12T08:26:36;20.20;71.90
3075;DHT22;1548;51.716;8.748;2022-09-12T08:29:02;20.30;71.50
3075;DHT22;1548;51.716;8.748;2022-09-12T08:31:28;20.40;71.40
3075;DHT22;1548;51.716;8.748;2022-09-12T08:33:57;20.60;71.00
3075;DHT22;1548;51.716;8.748;2022-09-12T08:36:25;20.80;70.60
3075;DHT22;1548;51.716;8.748;2022-09-12T08:38:57;20.90;70.40
3075;DHT22;1548;51.716;8.748;2022-09-12T08:41:39;21.00;70.20
3075;DHT22;1548;51.716;8.748;2022-09-12T08:47:15;21.10;70.20
3075;DHT22;1548;51.716;8.748;2022-09-12T08:52:50;21.40;69.60
3075;DHT22;1548;51.716;8.748;2022-09-12T08:55:30;21.40;69.60
3075;DHT22;1548;51.716;8.748;2022-09-12T08:57:58;21.50;69.70
3075;DHT22;1548;51.716;8.748;2022-09-12T09:00:34;21.50;69.50
3075;DHT22;1548;51.716;8.748;2022-09-12T09:09:15;22.10;68.90
3075;DHT22;1548;51.716;8.748;2022-09-12T09:11:48;22.00;69.10
3075;DHT22;1548;51.716;8.748;2022-09-12T09:14:57;22.00;69.20
3075;DHT22;1548;51.716;8.748;2022-09-12T09:19:49;22.00;69.10
3075;DHT22;1548;51.716;8.748;2022-09-12T09:22:32;22.10;68.80
3075;DHT22;1548;51.716;8.748;2022-09-12T09:25:47;22.30;68.40
3075;DHT22;1548;51.716;8.748;2022-09-12T09:27:58;22.30;68.40
3075;DHT22;1548;51.716;8.748;2022-09-12T09:30:29;22.30;68.50
3075;DHT22;1548;51.716;8.748;2022-09-12T09:32:58;22.40;68.30
3075;DHT22;1548;51.716;8.748;2022-09-12T09:38:47;22.00;68.60
3075;DHT22;1548;51.716;8.748;2022-09-12T09:41:33;22.20;68.60
3075;DHT22;1548;51.716;8.748;2022-09-12T09:43:51;22.30;68.10
3075;DHT22;1548;51.716;8.748;2022-09-12T09:46:16;22.60;68.00
3075;DHT22;1548;51.716;8.748;2022-09-12T09:48:46;22.50;67.70
3075;DHT22;1548;51.716;8.748;2022-09-12T09:51:13;22.50;68.20
3075;DHT22;1548;51.716;8.748;2022-09-12T09:56:32;22.30;68.30
3075;DHT22;1548;51.716;8.748;2022-09-12T10:01:34;22.60;68.00
3075;DHT22;1548;51.716;8.748;2022-09-12T10:04:00;22.70;67.80
3075;DHT22;1548;51.716;8.748;2022-09-12T10:06:29;22.90;67.70
3075;DHT22;1548;51.716;8.748;2022-09-12T10:09:27;23.10;67.10
3075;DHT22;1548;51.716;8.748;2022-09-12T10:11:54;23.30;66.60
3075;DHT22;1548;51.716;8.748;2022-09-12T10:16:52;22.80;67.40
3075;DHT22;1548;51.716;8.748;2022-09-12T10:19:23;22.90;67.30
3075;DHT22;1548;51.716;8.748;2022-09-12T10:21:53;23.10;66.40
3075;DHT22;1548;51.716;8.748;2022-09-12T10:24:26;23.20;65.80
3075;DHT22;1548;51.716;8.748;2022-09-12T10:26:53;23.00;66.00
3075;DHT22;1548;51.716;8.748;2022-09-12T10:29:31;23.30;65.80
3075;DHT22;1548;51.716;8.748;2022-09-12T10:32:00;23.20;66.10
3075;DHT22;1548;51.716;8.748;2022-09-12T10:37:06;22.90;66.10
3075;DHT22;1548;51.716;8.748;2022-09-12T10:39:34;23.10;65.10
3075;DHT22;1548;51.716;8.748;2022-09-12T10:42:03;23.00;65.40
3075;DHT22;1548;51.716;8.748;2022-09-12T10:44:31;23.20;65.30
3075;DHT22;1548;51.716;8.748;2022-09-12T10:46:59;22.90;65.40
3075;DHT22;1548;51.716;8.748;2022-09-12T10:49:25;23.10;64.50
3075;DHT22;1548;51.716;8.748;2022-09-12T10:51:53;23.10;64.20
3075;DHT22;1548;51.716;8.748;2022-09-12T10:54:22;22.80;64.20
3075;DHT22;1548;51.716;8.748;2022-09-12T11:07:41;23.50;62.50
3075;DHT22;1548;51.716;8.748;2022-09-12T11:10:26;23.50;62.60
3075;DHT22;1548;51.716;8.748;2022-09-12T11:13:16;23.30;62.90
3075;DHT22;1548;51.716;8.748;2022-09-12T11:21:50;22.60;63.70
3075;DHT22;1548;51.716;8.748;2022-09-12T11:27:14;22.80;63.70
3075;DHT22;1548;51.716;8.748;2022-09-12T11:35:34;23.30;63.20
3075;DHT22;1548;51.716;8.748;2022-09-12T11:43:34;23.30;62.50
3075;DHT22;1548;51.716;8.748;2022-09-12T11:46:08;23.20;63.10
3075;DHT22;1548;51.716;8.748;2022-09-12T11:51:25;23.30;62.70
3075;DHT22;1548;51.716;8.748;2022-09-12T11:54:31;23.50;62.80
3075;DHT22;1548;51.716;8.748;2022-09-12T11:57:05;23.60;62.40
3075;DHT22;1548;51.716;8.748;2022-09-12T12:02:02;23.80;62.20
3075;DHT22;1548;51.716;8.748;2022-09-12T12:04:39;23.70;61.50
3075;DHT22;1548;51.716;8.748;2022-09-12T12:07:08;23.70;62.30
3075;DHT22;1548;51.716;8.748;2022-09-12T12:09:42;23.50;62.20
3075;DHT22;1548;51.716;8.748;2022-09-12T12:12:17;23.40;62.50
3075;DHT22;1548;51.716;8.748;2022-09-12T12:14:47;23.60;62.80
3075;DHT22;1548;51.716;8.748;2022-09-12T12:17:22;23.70;62.50
3075;DHT22;1548;51.716;8.748;2022-09-12T12:20:00;23.70;62.60
3075;DHT22;1548;51.716;8.748;2022-09-12T12:22:28;23.60;62.80
3075;DHT22;1548;51.716;8.748;2022-09-12T12:28:01;23.80;62.40
3075;DHT22;1548;51.716;8.748;2022-09-12T12:35:42;23.70;63.20
3075;DHT22;1548;51.716;8.748;2022-09-12T12:38:37;24.00;62.50
3075;DHT22;1548;51.716;8.748;2022-09-12T12:43:47;24.00;62.70
3075;DHT22;1548;51.716;8.748;2022-09-12T12:46:20;23.90;62.70
3075;DHT22;1548;51.716;8.748;2022-09-12T12:48:48;24.00;62.80
3075;DHT22;1548;51.716;8.748;2022-09-12T12:54:04;24.10;62.80
3075;DHT22;1548;51.716;8.748;2022-09-12T12:56:41;24.20;61.80
3075;DHT22;1548;51.716;8.748;2022-09-12T12:59:20;24.40;61.80
3075;DHT22;1548;51.716;8.748;2022-09-12T13:01:50;24.40;61.60
3075;DHT22;1548;51.716;8.748;2022-09-12T13:04:19;24.40;61.50
3075;DHT22;1548;51.716;8.748;2022-09-12T13:06:56;24.30;61.80
3075;DHT22;1548;51.716;8.748;2022-09-12T13:09:29;24.10;61.80
3075;DHT22;1548;51.716;8.748;2022-09-12T13:12:08;23.90;61.90
3075;DHT22;1548;51.716;8.748;2022-09-12T13:17:19;24.00;62.20
3075;DHT22;1548;51.716;8.748;2022-09-12T13:19:47;24.30;61.30
3075;DHT22;1548;51.716;8.748;2022-09-12T13:22:14;24.10;61.90
3075;DHT22;1548;51.716;8.748;2022-09-12T13:24:44;24.00;62.00
3075;DHT22;1548;51.716;8.748;2022-09-12T13:27:23;23.50;62.20
3075;DHT22;1548;51.716;8.748;2022-09-12T13:30:10;23.40;62.80
3075;DHT22;1548;51.716;8.748;2022-09-12T13:32:37;23.70;62.70
3075;DHT22;1548;51.716;8.748;2022-09-12T13:35:12;23.80;61.90
3075;DHT22;1548;51.716;8.748;2022-09-12T13:37:51;24.00;61.60
3075;DHT22;1548;51.716;8.748;2022-09-12T13:40:54;24.20;61.30
3075;DHT22;1548;51.716;8.748;2022-09-12T13:43:44;24.20;60.80
3075;DHT22;1548;51.716;8.748;2022-09-12T13:46:15;24.30;61.20
3075;DHT22;1548;51.716;8.748;2022-09-12T13:48:42;24.40;60.90
3075;DHT22;1548;51.716;8.748;2022-09-12T13:51:25;24.30;60.90
3075;DHT22;1548;51.716;8.748;2022-09-12T13:53:55;24.00;61.50
3075;DHT22;1548;51.716;8.748;2022-09-12T13:56:21;24.30;61.00
3075;DHT22;1548;51.716;8.748;2022-09-12T13:58:58;24.50;60.40
3075;DHT22;1548;51.716;8.748;2022-09-12T14:01:57;24.60;59.60
3075;DHT22;1548;51.716;8.748;2022-09-12T14:04:25;24.50;60.10
3075;DHT22;1548;51.716;8.748;2022-09-12T14:07:19;24.60;59.50
3075;DHT22;1548;51.716;8.748;2022-09-12T14:09:56;24.70;59.30
3075;DHT22;1548;51.716;8.748;2022-09-12T14:12:33;24.70;59.60
3075;DHT22;1548;51.716;8.748;2022-09-12T14:15:01;24.60;59.80
3075;DHT22;1548;51.716;8.748;2022-09-12T14:17:32;24.90;59.30
3075;DHT22;1548;51.716;8.748;2022-09-12T14:19:59;25.00;58.70
3075;DHT22;1548;51.716;8.748;2022-09-12T14:22:26;25.10;59.00
3075;DHT22;1548;51.716;8.748;2022-09-12T14:24:55;25.00;58.80
3075;DHT22;1548;51.716;8.748;2022-09-12T14:27:27;25.10;58.90
3075;DHT22;1548;51.716;8.748;2022-09-12T14:30:00;25.10;58.60
3075;DHT22;1548;51.716;8.748;2022-09-12T14:32:26;25.00;58.30
3075;DHT22;1548;51.716;8.748;2022-09-12T14:37:32;25.00;58.30
3075;DHT22;1548;51.716;8.748;2022-09-12T14:39:57;25.10;58.20
3075;DHT22;1548;51.716;8.748;2022-09-12T14:42:26;24.70;57.90
3075;DHT22;1548;51.716;8.748;2022-09-12T14:45:02;24.70;58.60
3075;DHT22;1548;51.716;8.748;2022-09-12T14:47:37;24.80;58.60
3075;DHT22;1548;51.716;8.748;2022-09-12T14:50:22;24.90;58.40
3075;DHT22;1548;51.716;8.748;2022-09-12T14:53:05;24.80;57.50
3075;DHT22;1548;51.716;8.748;2022-09-12T14:55:33;25.00;57.90
3075;DHT22;1548;51.716;8.748;2022-09-12T15:00:58;25.30;56.80
3075;DHT22;1548;51.716;8.748;2022-09-12T15:05:50;25.00;57.50
3075;DHT22;1548;51.716;8.748;2022-09-12T15:08:15;24.90;57.60
3075;DHT22;1548;51.716;8.748;2022-09-12T15:10:41;24.90;57.60
3075;DHT22;1548;51.716;8.748;2022-09-12T15:15:33;25.10;57.50
3075;DHT22;1548;51.716;8.748;2022-09-12T15:17:59;25.10;57.70
3075;DHT22;1548;51.716;8.748;2022-09-12T15:20:25;25.10;57.60
3075;DHT22;1548;51.716;8.748;2022-09-12T15:22:51;24.70;57.60
3075;DHT22;1548;51.716;8.748;2022-09-12T15:25:17;24.30;58.40
3075;DHT22;1548;51.716;8.748;2022-09-12T15:27:44;24.40;58.50
3075;DHT22;1548;51.716;8.748;2022-09-12T15:30:11;24.40;58.60
3075;DHT22;1548;51.716;8.748;2022-09-12T15:32:38;24.40;58.40
3075;DHT22;1548;51.716;8.748;2022-09-12T15:35:20;24.60;58.50
3075;DHT22;1548;51.716;8.748;2022-09-12T15:37:47;24.50;58.00
3075;DHT22;1548;51.716;8.748;2022-09-12T15:40:14;24.40;58.30
3075;DHT22;1548;51.716;8.748;2022-09-12T15:42:40;24.60;58.30
3075;DHT22;1548;51.716;8.748;2022-09-12T15:45:22;24.80;58.50
3075;DHT22;1548;51.716;8.748;2022-09-12T15:47:50;24.90;57.80
3075;DHT22;1548;51.716;8.748;2022-09-12T15:50:16;24.90;57.80
3075;DHT22;1548;51.716;8.748;2022-09-12T15:52:41;24.80;58.00
3075;DHT22;1548;51.716;8.748;2022-09-12T15:55:26;24.60;58.60
3075;DHT22;1548;51.716;8.748;2022-09-12T15:57:52;24.10;59.30
3075;DHT22;1548;51.716;8.748;2022-09-12T16:00:19;23.90;59.70
3075;DHT22;1548;51.716;8.748;2022-09-12T16:02:45;24.00;59.90
3075;DHT22;1548;51.716;8.748;2022-09-12T16:05:17;23.90;60.10
3075;DHT22;1548;51.716;8.748;2022-09-12T16:07:43;23.90;59.80
3075;DHT22;1548;51.716;8.748;2022-09-12T16:10:16;23.90;59.90
3075;DHT22;1548;51.716;8.748;2022-09-12T16:12:43;24.00;59.70
3075;DHT22;1548;51.716;8.748;2022-09-12T16:15:12;24.00;59.70
3075;DHT22;1548;51.716;8.748;2022-09-12T16:17:38;24.00;59.60
3075;DHT22;1548;51.716;8.748;2022-09-12T16:20:04;24.00;59.40
3075;DHT22;1548;51.716;8.748;2022-09-12T16:22:30;24.00;59.40
3075;DHT22;1548;51.716;8.748;2022-09-12T16:24:56;24.00;59.30
3075;DHT22;1548;51.716;8.748;2022-09-12T16:27:22;23.90;59.60
3075;DHT22;1548;51.716;8.748;2022-09-12T16:29:47;23.90;59.80
3075;DHT22;1548;51.716;8.748;2022-09-12T16:32:13;23.90;59.40
3075;DHT22;1548;51.716;8.748;2022-09-12T16:34:38;23.80;59.50
3075;DHT22;1548;51.716;8.748;2022-09-12T16:37:04;23.90;59.70
3075;DHT22;1548;51.716;8.748;2022-09-12T16:39:30;24.00;59.20
3075;DHT22;1548;51.716;8.748;2022-09-12T16:41:55;24.00;59.30
3075;DHT22;1548;51.716;8.748;2022-09-12T16:44:21;23.90;59.70
3075;DHT22;1548;51.716;8.748;2022-09-12T16:46:46;23.70;59.80
3075;DHT22;1548;51.716;8.748;2022-09-12T16:49:12;23.50;60.40
3075;DHT22;1548;51.716;8.748;2022-09-12T16:51:38;23.40;60.40
3075;DHT22;1548;51.716;8.748;2022-09-12T16:54:06;23.40;60.50
3075;DHT22;1548;51.716;8.748;2022-09-12T16:56:31;23.50;60.50
3075;DHT22;1548;51.716;8.748;2022-09-12T16:58:57;23.40;60.70
3075;DHT22;1548;51.716;8.748;2022-09-12T17:01:24;23.20;60.90
3075;DHT22;1548;51.716;8.748;2022-09-12T17:03:57;23.10;61.10
3075;DHT22;1548;51.716;8.748;2022-09-12T17:06:24;23.00;61.80
3075;DHT22;1548;51.716;8.748;2022-09-12T17:08:52;22.90;61.40
3075;DHT22;1548;51.716;8.748;2022-09-12T17:11:23;22.90;61.60
3075;DHT22;1548;51.716;8.748;2022-09-12T17:13:54;22.80;61.80
3075;DHT22;1548;51.716;8.748;2022-09-12T17:16:21;22.70;62.20
3075;DHT22;1548;51.716;8.748;2022-09-12T17:18:47;22.50;62.50
3075;DHT22;1548;51.716;8.748;2022-09-12T17:21:14;22.40;62.70
3075;DHT22;1548;51.716;8.748;2022-09-12T17:23:40;22.30;63.10
3075;DHT22;1548;51.716;8.748;2022-09-12T17:26:06;22.30;63.10
3075;DHT22;1548;51.716;8.748;2022-09-12T17:28:32;22.20;63.30
3075;DHT22;1548;51.716;8.748;2022-09-12T17:31:00;22.20;63.30
3075;DHT22;1548;51.716;8.748;2022-09-12T17:33:26;22.10;63.40
3075;DHT22;1548;51.716;8.748;2022-09-12T17:35:52;22.10;63.50
3075;DHT22;1548;51.716;8.748;2022-09-12T17:38:18;22.00;63.70
3075;DHT22;1548;51.716;8.748;2022-09-12T17:40:44;21.90;63.80
3075;DHT22;1548;51.716;8.748;2022-09-12T17:43:14;21.80;64.10
3075;DHT22;1548;51.716;8.748;2022-09-12T17:45:40;21.70;64.30
3075;DHT22;1548;51.716;8.748;2022-09-12T17:48:06;21.50;64.60
3075;DHT22;1548;51.716;8.748;2022-09-12T17:50:39;21.40;64.80
3075;DHT22;1548;51.716;8.748;2022-09-12T17:53:06;21.40;65.00
3075;DHT22;1548;51.716;8.748;2022-09-12T17:55:35;21.30;65.40
3075;DHT22;1548;51.716;8.748;2022-09-12T17:58:01;21.10;65.60
3075;DHT22;1548;51.716;8.748;2022-09-12T18:00:28;21.10;65.70
3075;DHT22;1548;51.716;8.748;2022-09-12T18:03:13;21.00;65.90
3075;DHT22;1548;51.716;8.748;2022-09-12T18:05:50;21.00;66.00
3075;DHT22;1548;51.716;8.748;2022-09-12T18:08:17;20.90;66.10
3075;DHT22;1548;51.716;8.748;2022-09-12T18:10:44;20.80;66.30
3075;DHT22;1548;51.716;8.748;2022-09-12T18:13:10;20.80;66.50
3075;DHT22;1548;51.716;8.748;2022-09-12T18:15:36;20.80;66.30
3075;DHT22;1548;51.716;8.748;2022-09-12T18:18:03;20.70;66.50
3075;DHT22;1548;51.716;8.748;2022-09-12T18:20:29;20.70;66.40
3075;DHT22;1548;51.716;8.748;2022-09-12T18:22:55;20.50;67.00
3075;DHT22;1548;51.716;8.748;2022-09-12T18:25:20;20.50;67.10
3075;DHT22;1548;51.716;8.748;2022-09-12T18:27:46;20.40;67.30
3075;DHT22;1548;51.716;8.748;2022-09-12T18:30:12;20.40;67.50
3075;DHT22;1548;51.716;8.748;2022-09-12T18:32:38;20.30;67.40
3075;DHT22;1548;51.716;8.748;2022-09-12T18:35:05;20.30;67.70
3075;DHT22;1548;51.716;8.748;2022-09-12T18:37:31;20.30;67.80
3075;DHT22;1548;51.716;8.748;2022-09-12T18:39:56;20.30;67.80
3075;DHT22;1548;51.716;8.748;2022-09-12T18:42:23;20.20;67.90
3075;DHT22;1548;51.716;8.748;2022-09-12T18:44:49;20.20;68.20
3075;DHT22;1548;51.716;8.748;2022-09-12T18:47:15;20.10;68.00
3075;DHT22;1548;51.716;8.748;2022-09-12T18:49:40;20.00;68.20